Time;durP1;ratioP1;P1;durP2;ratioP2;P2;SDS_P1;SDS_P2;PMS_P1;PMS_P2;Temp;Humidity;BMP_temperature;BMP_pressure;BME280_temperature;BME280_humidity;BME280_pressure;Samples;Min_cycle;Max_cycle;Signal;HPM_P1;HPM_P2
2022/07/07 00:01:08;;;;;;;;;;;;;;;22.44;55.62;99449.69;3158348;28;19980;-65
2022/07/07 00:02:40;;;;;;;;;;;;;;;22.40;55.49;99451.00;3158384;28;19924;-65
2022/07/07 00:04:11;;;;;;;;;;;;;;;22.38;55.20;99445.00;3158125;28;19928;-65
2022/07/07 00:05:43;;;;;;;;;;;;;;;22.36;55.19;99452.31;3158209;28;19946;-65
2022/07/07 00:07:14;;;;;;;;;;;;;;;22.37;55.16;99458.44;3159761;28;19928;-65
2022/07/07 00:08:47;;;;;;;;;;;;;;;22.37;54.84;99446.00;3162384;28;19927;-65
2022/07/07 00:10:20;;;;;;;;;;;;;;;22.35;54.71;99450.63;3159962;28;19988;-65
2022/07/07 00:11:52;;;;;;;;;;;;;;;22.37;54.90;99453.13;3158017;28;20450;-66
2022/07/07 00:13:24;;;;;;;;;;;;;;;22.36;54.54;99446.16;3158222;28;19924;-66
2022/07/07 00:14:55;;;;;;;;;;;;;;;22.35;54.35;99452.44;3158156;28;19928;-66
2022/07/07 00:16:27;;;;;;;;;;;;;;;22.35;54.22;99442.66;3158206;28;19936;-65
2022/07/07 00:17:59;;;;;;;;;;;;;;;22.34;54.22;99435.69;3158153;28;19928;-65
2022/07/07 00:19:29;;;;;;;;;;;;;;;22.36;54.54;99431.09;3158092;28;19924;-66
2022/07/07 00:21:01;;;;;;;;;;;;;;;22.39;54.54;99436.09;3158033;28;20116;-65
2022/07/07 00:22:33;;;;;;;;;;;;;;;22.33;54.26;99423.44;3158385;28;20389;-66
2022/07/07 00:24:03;;;;;;;;;;;;;;;22.39;54.23;99436.09;3157866;28;20355;-65
2022/07/07 00:25:36;;;;;;;;;;;;;;;22.38;54.12;99433.56;3157825;28;20014;-65
2022/07/07 00:27:08;;;;;;;;;;;;;;;22.36;54.21;99436.38;3158054;28;19987;-65
2022/07/07 00:28:39;;;;;;;;;;;;;;;22.39;54.09;99437.88;3158042;28;19932;-65
2022/07/07 00:30:12;;;;;;;;;;;;;;;22.40;54.32;99435.09;3157836;28;19928;-65
2022/07/07 00:31:43;;;;;;;;;;;;;;;22.40;54.33;99436.91;3157879;28;19993;-65
2022/07/07 00:33:16;;;;;;;;;;;;;;;22.42;54.01;99442.88;3157798;28;19931;-66
2022/07/07 00:34:47;;;;;;;;;;;;;;;22.43;54.21;99445.38;3157942;28;20019;-66
2022/07/07 00:36:19;;;;;;;;;;;;;;;22.43;53.98;99444.56;3157956;28;19932;-65
2022/07/07 00:37:50;;;;;;;;;;;;;;;22.46;53.88;99450.38;3157933;28;20407;-66
2022/07/07 00:39:22;;;;;;;;;;;;;;;22.48;54.13;99445.75;3154257;28;20436;-65
2022/07/07 00:40:55;;;;;;;;;;;;;;;22.48;53.92;99445.75;3156893;28;20016;-65
2022/07/07 00:42:26;;;;;;;;;;;;;;;22.47;54.02;99441.44;3157795;28;20397;-66
2022/07/07 00:43:58;;;;;;;;;;;;;;;22.48;53.75;99445.75;3157843;28;19924;-66
2022/07/07 00:45:30;;;;;;;;;;;;;;;22.50;53.90;99445.59;3157926;28;19928;-66
2022/07/07 00:47:02;;;;;;;;;;;;;;;22.51;54.09;99441.13;3157708;28;20015;-66
2022/07/07 00:48:34;;;;;;;;;;;;;;;22.53;53.66;99441.81;3157665;28;19925;-66
2022/07/07 00:50:06;;;;;;;;;;;;;;;22.54;53.90;99439.00;3157928;28;19967;-66
2022/07/07 00:51:38;;;;;;;;;;;;;;;22.55;53.65;99440.66;3157919;28;19935;-66
2022/07/07 00:53:09;;;;;;;;;;;;;;;22.56;53.88;99437.00;3157971;28;20441;-66
2022/07/07 00:54:40;;;;;;;;;;;;;;;22.55;53.82;99430.06;3158084;28;19981;-66
2022/07/07 00:56:13;;;;;;;;;;;;;;;22.53;53.82;99434.66;3157841;28;20473;-66
2022/07/07 00:57:45;;;;;;;;;;;;;;;22.55;53.91;99434.53;3157854;28;20305;-66
2022/07/07 00:59:17;;;;;;;;;;;;;;;22.55;53.82;99430.06;3157975;28;19928;-65
2022/07/07 01:00:49;;;;;;;;;;;;;;;22.53;53.63;99431.19;3157734;28;20307;-66
2022/07/07 01:02:20;;;;;;;;;;;;;;;22.52;53.60;99433.00;3157893;28;19931;-65
2022/07/07 01:03:52;;;;;;;;;;;;;;;22.51;53.64;99431.34;3159742;28;19924;-65
2022/07/07 01:05:24;;;;;;;;;;;;;;;22.49;53.65;99434.16;3160280;28;19924;-65
2022/07/07 01:06:56;;;;;;;;;;;;;;;22.46;53.63;99430.97;3160740;28;19985;-65
2022/07/07 01:08:27;;;;;;;;;;;;;;;22.41;53.70;99433.25;3163750;28;19924;-66
2022/07/07 01:09:59;;;;;;;;;;;;;;;22.37;53.81;99432.75;3164926;28;20365;-66
2022/07/07 01:11:45;;;;;;;;;;;;;;;22.32;53.84;99429.72;3160154;28;20022;-65
2022/07/07 01:13:18;;;;;;;;;;;;;;;22.34;53.89;99435.69;3160318;28;19935;-66
2022/07/07 01:14:50;;;;;;;;;;;;;;;22.34;53.88;99446.31;3160250;28;19935;-65
2022/07/07 01:16:21;;;;;;;;;;;;;;;22.35;53.78;99440.00;3159995;28;20368;-66
2022/07/07 01:17:53;;;;;;;;;;;;;;;22.36;53.93;99433.75;3159813;28;19981;-66
2022/07/07 01:19:24;;;;;;;;;;;;;;;22.34;53.92;99427.75;3159962;28;20619;-66
2022/07/07 01:20:56;;;;;;;;;;;;;;;22.31;54.07;99438.66;3160359;28;19981;-66
2022/07/07 01:22:29;;;;;;;;;;;;;;;22.30;54.08;99436.97;3160339;28;19932;-66
2022/07/07 01:24:01;;;;;;;;;;;;;;;22.28;53.99;99431.00;3160171;28;19950;-66
2022/07/07 01:25:32;;;;;;;;;;;;;;;22.25;54.15;99440.09;3159860;28;19967;-66
2022/07/07 01:27:07;;;;;;;;;;;;;;;22.25;54.22;99436.63;3160219;28;19924;-66
2022/07/07 01:28:38;;;;;;;;;;;;;;;22.20;54.50;99442.38;3159932;28;19943;-66
2022/07/07 01:30:10;;;;;;;;;;;;;;;22.18;54.44;99443.50;3159901;28;20453;-65
2022/07/07 01:31:41;;;;;;;;;;;;;;;22.15;54.66;99435.81;3160215;28;19972;-65
2022/07/07 01:33:12;;;;;;;;;;;;;;;22.13;54.58;99443.13;3159827;28;19924;-66
2022/07/07 01:34:45;;;;;;;;;;;;;;;22.12;54.79;99446.72;3159947;28;20312;-65
2022/07/07 01:36:17;;;;;;;;;;;;;;;22.10;54.62;99444.25;3159966;28;19925;-66
2022/07/07 01:37:49;;;;;;;;;;;;;;;22.08;54.67;99448.03;3159642;28;19928;-66
2022/07/07 01:39:22;;;;;;;;;;;;;;;22.06;54.78;99442.03;3159989;28;20376;-66
2022/07/07 01:40:53;;;;;;;;;;;;;;;22.06;54.69;99445.53;3159914;28;19924;-66
2022/07/07 01:42:25;;;;;;;;;;;;;;;22.09;54.76;99447.03;3159752;28;19928;-66
2022/07/07 01:43:57;;;;;;;;;;;;;;;22.09;54.81;99444.38;3159981;28;19924;-65
2022/07/07 01:45:28;;;;;;;;;;;;;;;22.10;54.86;99440.78;3159833;28;19924;-66
2022/07/07 01:46:59;;;;;;;;;;;;;;;22.10;54.89;99440.78;3160058;28;19928;-66
2022/07/07 01:48:32;;;;;;;;;;;;;;;22.09;54.73;99439.09;3159801;28;20004;-66
2022/07/07 01:50:04;;;;;;;;;;;;;;;22.08;54.99;99437.44;3159729;28;20120;-65
2022/07/07 01:51:35;;;;;;;;;;;;;;;22.07;55.01;99443.72;3159986;28;19928;-66
2022/07/07 01:53:06;;;;;;;;;;;;;;;22.06;55.15;99439.38;3160165;28;19928;-65
2022/07/07 01:54:40;;;;;;;;;;;;;;;22.07;55.17;99441.91;3159545;28;19924;-66
2022/07/07 01:56:11;;;;;;;;;;;;;;;22.04;54.92;99437.72;3159933;28;19924;-65
2022/07/07 01:57:43;;;;;;;;;;;;;;;22.02;55.04;99438.88;3159585;28;19928;-66
2022/07/07 01:59:14;;;;;;;;;;;;;;;22.01;55.06;99431.91;3159846;28;20088;-66
2022/07/07 02:00:45;;;;;;;;;;;;;;;21.99;55.08;99434.69;3159844;28;20347;-66
2022/07/07 02:02:16;;;;;;;;;;;;;;;21.96;55.25;99437.66;3159611;28;19924;-66
2022/07/07 02:03:47;;;;;;;;;;;;;;;21.94;55.52;99430.81;3159447;28;19924;-66
2022/07/07 02:05:19;;;;;;;;;;;;;;;21.93;55.41;99432.66;3159636;28;19958;-66
2022/07/07 02:06:50;;;;;;;;;;;;;;;21.93;55.48;99440.59;3159877;28;19935;-66
2022/07/07 02:08:22;;;;;;;;;;;;;;;21.91;55.57;99437.25;3160010;28;19924;-66
2022/07/07 02:09:55;;;;;;;;;;;;;;;21.90;55.65;99434.78;3164734;28;19935;-65
2022/07/07 02:11:27;;;;;;;;;;;;;;;21.88;55.73;99442.03;3159491;28;19924;-66
2022/07/07 02:12:59;;;;;;;;;;;;;;;21.90;55.87;99442.72;3159738;28;20508;-66
2022/07/07 02:14:30;;;;;;;;;;;;;;;21.88;55.75;99434.09;3159053;28;20401;-66
2022/07/07 02:16:01;;;;;;;;;;;;;;;21.87;55.92;99445.69;3159261;28;20358;-66
2022/07/07 02:17:32;;;;;;;;;;;;;;;21.87;55.97;99437.72;3159390;28;20026;-66
2022/07/07 02:19:04;;;;;;;;;;;;;;;21.85;55.92;99445.00;3159925;28;19981;-66
2022/07/07 02:20:35;;;;;;;;;;;;;;;21.84;56.04;99441.50;3159298;28;19954;-66
2022/07/07 02:22:07;;;;;;;;;;;;;;;21.83;56.11;99445.16;3159811;28;20018;-65
2022/07/07 02:23:39;;;;;;;;;;;;;;;21.81;56.28;99444.47;3159546;28;20421;-66
2022/07/07 02:25:12;;;;;;;;;;;;;;;21.79;56.47;99439.28;3159148;28;19935;-66
2022/07/07 02:26:43;;;;;;;;;;;;;;;21.78;56.56;99442.13;3159362;28;19978;-66
2022/07/07 02:28:14;;;;;;;;;;;;;;;21.77;56.52;99445.75;3159106;28;20014;-66
2022/07/07 02:29:46;;;;;;;;;;;;;;;21.75;56.76;99453.84;3157516;28;20547;-65
2022/07/07 02:31:18;;;;;;;;;;;;;;;21.74;57.07;99446.88;3149458;28;19959;-66
2022/07/07 02:32:50;;;;;;;;;;;;;;;21.71;57.09;99452.47;3158701;28;19927;-65
2022/07/07 02:34:20;;;;;;;;;;;;;;;21.72;56.96;99442.72;3146704;28;19925;-65
2022/07/07 02:35:52;;;;;;;;;;;;;;;21.71;57.10;99460.44;3158011;28;20030;-65
2022/07/07 02:37:24;;;;;;;;;;;;;;;21.73;56.98;99457.63;3158914;28;19932;-66
2022/07/07 02:38:56;;;;;;;;;;;;;;;21.71;57.09;99457.78;3159481;28;19992;-66
2022/07/07 02:40:29;;;;;;;;;;;;;;;21.73;56.94;99460.28;3159025;28;19946;-66
2022/07/07 02:42:00;;;;;;;;;;;;;;;21.72;57.33;99463.91;3158830;28;19985;-66
2022/07/07 02:43:32;;;;;;;;;;;;;;;21.71;57.43;99465.75;3158987;28;19935;-65
2022/07/07 02:45:03;;;;;;;;;;;;;;;21.71;57.21;99468.38;3159483;28;19932;-65
2022/07/07 02:46:35;;;;;;;;;;;;;;;21.71;57.17;99462.22;3159111;28;19928;-66
2022/07/07 02:48:06;;;;;;;;;;;;;;;21.72;57.42;99463.91;3159366;28;19928;-66
2022/07/07 02:49:38;;;;;;;;;;;;;;;21.72;57.34;99458.63;3146476;28;19959;-66
2022/07/07 02:51:09;;;;;;;;;;;;;;;21.72;57.39;99463.91;3157785;28;20008;-66
2022/07/07 02:52:41;;;;;;;;;;;;;;;21.73;57.47;99462.91;3159085;28;19947;-66
2022/07/07 02:54:13;;;;;;;;;;;;;;;21.73;57.53;99460.28;3158997;28;19931;-66
2022/07/07 02:55:46;;;;;;;;;;;;;;;21.73;57.61;99455.81;3158950;28;20007;-66
2022/07/07 02:57:17;;;;;;;;;;;;;;;21.73;57.64;99457.63;3158982;28;19924;-66
2022/07/07 02:58:49;;;;;;;;;;;;;;;21.75;57.70;99458.31;3159193;28;19988;-66
2022/07/07 03:00:21;;;;;;;;;;;;;;;21.76;57.60;99454.66;3159025;28;19973;-65
2022/07/07 03:01:52;;;;;;;;;;;;;;;21.75;57.58;99459.16;3158859;28;19924;-66
2022/07/07 03:03:24;;;;;;;;;;;;;;;21.76;57.42;99455.50;3158657;28;19953;-65
2022/07/07 03:04:55;;;;;;;;;;;;;;;21.77;57.72;99459.00;3159171;28;19946;-66
2022/07/07 03:06:27;;;;;;;;;;;;;;;21.79;57.54;99455.19;3158850;28;20000;-66
2022/07/07 03:07:59;;;;;;;;;;;;;;;21.79;57.68;99449.91;3161060;28;19931;-65
2022/07/07 03:09:30;;;;;;;;;;;;;;;21.80;57.51;99453.41;3158246;28;19928;-66
2022/07/07 03:11:03;;;;;;;;;;;;;;;21.81;57.62;99450.59;3158687;28;20305;-66
2022/07/07 03:12:34;;;;;;;;;;;;;;;21.81;57.33;99452.41;3158526;28;19943;-66
2022/07/07 03:14:06;;;;;;;;;;;;;;;21.84;57.21;99461.88;3158741;28;20043;-65
2022/07/07 03:15:37;;;;;;;;;;;;;;;21.85;57.08;99452.94;3146498;28;19924;-66
2022/07/07 03:17:08;;;;;;;;;;;;;;;21.86;57.22;99457.25;3157332;28;19924;-66
2022/07/07 03:18:39;;;;;;;;;;;;;;;21.87;57.04;99457.13;3158607;28;20312;-66
2022/07/07 03:20:12;;;;;;;;;;;;;;;21.89;56.90;99449.84;3158546;28;19924;-68
2022/07/07 03:21:43;;;;;;;;;;;;;;;21.90;56.77;99459.47;3158902;28;19924;-67
2022/07/07 03:23:14;;;;;;;;;;;;;;;21.92;56.57;99454.84;3158812;28;19928;-67
2022/07/07 03:24:45;;;;;;;;;;;;;;;21.93;56.63;99455.69;3158703;28;20027;-67
2022/07/07 03:26:18;;;;;;;;;;;;;;;21.95;56.39;99459.84;3157996;28;19928;-67
2022/07/07 03:27:50;;;;;;;;;;;;;;;21.94;56.09;99460.00;3158600;28;20247;-67
2022/07/07 03:29:22;;;;;;;;;;;;;;;21.93;56.20;99455.69;3158176;28;19924;-66
2022/07/07 03:30:53;;;;;;;;;;;;;;;21.95;56.19;99459.03;3158775;28;19981;-66
2022/07/07 03:32:24;;;;;;;;;;;;;;;21.96;55.91;99458.03;3158486;28;19928;-67
2022/07/07 03:33:55;;;;;;;;;;;;;;;21.94;56.12;99455.50;3160543;28;20317;-67
2022/07/07 03:35:27;;;;;;;;;;;;;;;21.95;55.88;99459.84;3158496;28;19924;-67
2022/07/07 03:36:59;;;;;;;;;;;;;;;21.95;56.25;99454.56;3158660;28;19924;-65
2022/07/07 03:38:30;;;;;;;;;;;;;;;21.99;56.10;99461.22;3158932;28;20001;-66
2022/07/07 03:40:03;;;;;;;;;;;;;;;22.00;56.03;99456.72;3158648;28;19924;-67
2022/07/07 03:41:36;;;;;;;;;;;;;;;22.00;56.02;99456.72;3158582;28;19977;-67
2022/07/07 03:43:08;;;;;;;;;;;;;;;22.00;56.19;99459.38;3158745;28;19996;-67
2022/07/07 03:44:39;;;;;;;;;;;;;;;21.99;56.02;99460.38;3158698;28;19973;-65
2022/07/07 03:46:11;;;;;;;;;;;;;;;21.98;56.00;99458.72;3158358;28;19939;-67
2022/07/07 03:47:42;;;;;;;;;;;;;;;21.98;56.02;99461.38;3158325;28;19928;-67
2022/07/07 03:49:14;;;;;;;;;;;;;;;21.99;56.13;99452.44;3158405;28;19950;-67
2022/07/07 03:50:46;;;;;;;;;;;;;;;21.98;56.07;99450.78;3158578;28;19924;-66
2022/07/07 03:52:16;;;;;;;;;;;;;;;21.99;55.77;99463.88;3158445;28;19931;-65
2022/07/07 03:53:48;;;;;;;;;;;;;;;22.04;55.64;99466.91;3158116;28;20334;-67
2022/07/07 03:55:19;;;;;;;;;;;;;;;22.06;55.68;99455.31;3158350;28;19950;-67
2022/07/07 03:56:52;;;;;;;;;;;;;;;22.06;55.63;99458.78;3158578;28;19936;-66
2022/07/07 03:58:23;;;;;;;;;;;;;;;22.06;55.79;99464.09;3157831;28;19975;-67
2022/07/07 03:59:55;;;;;;;;;;;;;;;22.09;55.67;99460.28;3158352;28;20413;-66
2022/07/07 04:01:26;;;;;;;;;;;;;;;22.11;55.48;99461.81;3158359;28;19935;-66
2022/07/07 04:02:58;;;;;;;;;;;;;;;22.11;55.40;99466.28;3157948;28;20259;-66
2022/07/07 04:04:30;;;;;;;;;;;;;;;22.12;55.32;99468.78;3158208;28;20004;-66
2022/07/07 04:06:02;;;;;;;;;;;;;;;22.12;55.67;99471.44;3157664;28;19964;-66
2022/07/07 04:07:34;;;;;;;;;;;;;;;22.12;55.48;99473.25;3160531;28;19928;-65
2022/07/07 04:09:04;;;;;;;;;;;;;;;22.14;55.59;99472.13;3158195;28;20324;-66
2022/07/07 04:10:36;;;;;;;;;;;;;;;22.17;55.53;99468.38;3158072;28;19932;-65
2022/07/07 04:12:09;;;;;;;;;;;;;;;22.18;55.29;99468.22;3158084;28;19924;-66
2022/07/07 04:13:40;;;;;;;;;;;;;;;22.21;55.41;99469.72;3158280;28;20325;-66
2022/07/07 04:15:11;;;;;;;;;;;;;;;22.21;55.34;99465.28;3157887;28;19924;-66
2022/07/07 04:16:43;;;;;;;;;;;;;;;22.23;55.19;99465.94;3157892;28;19931;-66
2022/07/07 04:18:15;;;;;;;;;;;;;;;22.26;55.22;99473.59;3158395;28;19973;-67
2022/07/07 04:19:46;;;;;;;;;;;;;;;22.30;55.05;99478.59;3157882;28;19935;-66
2022/07/07 04:21:17;;;;;;;;;;;;;;;22.30;55.00;99476.75;3158415;28;19931;-66
2022/07/07 04:22:49;;;;;;;;;;;;;;;22.33;55.15;99470.31;3158406;28;19928;-66
2022/07/07 04:24:20;;;;;;;;;;;;;;;22.36;54.92;99476.19;3158020;28;19975;-65
2022/07/07 04:25:52;;;;;;;;;;;;;;;22.37;54.69;99485.78;3157703;28;20405;-66
2022/07/07 04:27:25;;;;;;;;;;;;;;;22.41;54.58;99481.00;3158053;28;20320;-66
2022/07/07 04:28:56;;;;;;;;;;;;;;;22.42;54.63;99480.88;3157813;28;19932;-66
2022/07/07 04:30:28;;;;;;;;;;;;;;;22.46;54.60;99484.88;3158099;28;19957;-66
2022/07/07 04:31:59;;;;;;;;;;;;;;;22.47;54.48;99486.53;3157971;28;19924;-66
2022/07/07 04:33:30;;;;;;;;;;;;;;;22.52;54.71;99485.25;3160031;28;19931;-66
2022/07/07 04:35:01;;;;;;;;;;;;;;;22.53;54.39;99485.09;3158213;28;19977;-66
2022/07/07 04:36:33;;;;;;;;;;;;;;;22.55;54.54;99492.91;3158318;28;19925;-66
2022/07/07 04:38:04;;;;;;;;;;;;;;;22.57;54.39;99486.47;3157205;28;19924;-66
2022/07/07 04:39:36;;;;;;;;;;;;;;;22.57;54.37;99485.59;3158141;28;19924;-66
2022/07/07 04:41:07;;;;;;;;;;;;;;;22.57;54.14;99489.13;3152286;28;20315;-66
2022/07/07 04:42:41;;;;;;;;;;;;;;;22.58;54.20;99487.28;3157812;28;19935;-66
2022/07/07 04:44:12;;;;;;;;;;;;;;;22.59;54.19;99489.78;3157970;28;20290;-66
2022/07/07 04:45:44;;;;;;;;;;;;;;;22.61;54.19;99490.47;3157492;28;20320;-66
2022/07/07 04:47:15;;;;;;;;;;;;;;;22.64;54.14;99484.03;3158187;28;19935;-66
2022/07/07 04:48:47;;;;;;;;;;;;;;;22.66;54.33;99487.38;3157875;28;19978;-66
2022/07/07 04:50:18;;;;;;;;;;;;;;;22.68;54.37;99477.41;3157578;28;19931;-66
2022/07/07 04:51:50;;;;;;;;;;;;;;;22.67;54.13;99478.41;3158102;28;19928;-66
2022/07/07 04:53:21;;;;;;;;;;;;;;;22.69;54.21;99477.25;3157987;28;19986;-66
2022/07/07 04:54:53;;;;;;;;;;;;;;;22.73;54.12;99484.91;3158101;28;19980;-66
2022/07/07 04:56:24;;;;;;;;;;;;;;;22.75;54.16;99480.31;3157778;28;20502;-66
2022/07/07 04:57:57;;;;;;;;;;;;;;;22.77;54.24;99480.94;3157902;28;20328;-66
2022/07/07 04:59:29;;;;;;;;;;;;;;;22.78;54.24;99478.16;3157526;28;20438;-66
2022/07/07 05:00:59;;;;;;;;;;;;;;;22.80;54.00;99468.19;3157870;28;19928;-66
2022/07/07 05:02:31;;;;;;;;;;;;;;;22.82;53.92;99476.03;3157814;28;20064;-66
2022/07/07 05:04:03;;;;;;;;;;;;;;;22.86;53.89;99472.88;3158076;28;19930;-66
2022/07/07 05:05:33;;;;;;;;;;;;;;;22.90;53.92;99478.72;3157895;28;20718;-65
2022/07/07 05:07:05;;;;;;;;;;;;;;;22.91;53.48;99477.72;3158215;28;20102;-66
2022/07/07 05:08:37;;;;;;;;;;;;;;;22.95;53.48;99473.78;3159554;28;19947;-66
2022/07/07 05:10:08;;;;;;;;;;;;;;;23.00;53.25;99468.84;3157879;28;19962;-65
2022/07/07 05:11:40;;;;;;;;;;;;;;;23.02;53.10;99474.03;3157538;28;20342;-66
2022/07/07 05:13:13;;;;;;;;;;;;;;;23.05;53.37;99476.38;3157941;28;19924;-66
2022/07/07 05:14:44;;;;;;;;;;;;;;;23.09;52.94;99478.53;3157742;28;20413;-66
2022/07/07 05:16:17;;;;;;;;;;;;;;;23.14;52.90;99478.06;3157761;28;19935;-66
2022/07/07 05:17:48;;;;;;;;;;;;;;;23.19;52.85;99473.13;3157738;28;20015;-66
2022/07/07 05:19:19;;;;;;;;;;;;;;;23.23;52.33;99476.28;3157412;28;19931;-66
2022/07/07 05:20:51;;;;;;;;;;;;;;;23.26;52.31;99468.00;3157920;28;19924;-66
2022/07/07 05:22:22;;;;;;;;;;;;;;;23.30;52.24;99475.47;3157731;28;19924;-66
2022/07/07 05:23:54;;;;;;;;;;;;;;;23.34;52.47;99474.19;3157606;28;19923;-66
2022/07/07 05:25:26;;;;;;;;;;;;;;;23.37;51.89;99481.84;3157305;28;20016;-66
2022/07/07 05:26:57;;;;;;;;;;;;;;;23.42;52.23;99483.19;3158193;28;19924;-65
2022/07/07 05:28:32;;;;;;;;;;;;;;;23.44;51.34;99478.56;3157556;28;19936;-66
2022/07/07 05:30:05;;;;;;;;;;;;;;;23.44;51.49;99483.88;3157639;28;19924;-66
2022/07/07 05:31:36;;;;;;;;;;;;;;;23.46;51.25;99490.69;3157737;28;20015;-66
2022/07/07 05:33:08;;;;;;;;;;;;;;;23.49;51.27;99486.88;3160280;28;20009;-65
2022/07/07 05:34:39;;;;;;;;;;;;;;;23.52;51.41;99487.38;3157512;28;19924;-65
2022/07/07 05:36:11;;;;;;;;;;;;;;;23.58;51.51;99488.56;3157472;28;19973;-65
2022/07/07 05:37:42;;;;;;;;;;;;;;;23.65;51.58;99491.41;3157723;28;19936;-66
2022/07/07 05:39:14;;;;;;;;;;;;;;;23.71;50.95;99491.63;3157844;28;19924;-66
2022/07/07 05:40:45;;;;;;;;;;;;;;;23.74;50.77;99490.47;3157469;28;20324;-67
2022/07/07 05:42:16;;;;;;;;;;;;;;;23.77;50.47;99493.63;3157504;28;19924;-65
2022/07/07 05:43:49;;;;;;;;;;;;;;;23.75;50.65;99494.78;3157485;28;20018;-66
2022/07/07 05:45:21;;;;;;;;;;;;;;;23.76;50.33;99489.31;3157550;28;19981;-66
2022/07/07 05:46:52;;;;;;;;;;;;;;;23.75;50.59;99486.81;3157917;28;19924;-66
2022/07/07 05:48:24;;;;;;;;;;;;;;;23.78;50.48;99491.81;3157561;28;19928;-66
2022/07/07 05:49:56;;;;;;;;;;;;;;;23.81;50.48;99500.31;3159409;28;19928;-66
2022/07/07 05:51:27;;;;;;;;;;;;;;;23.83;50.52;99500.97;3159915;28;19924;-66
2022/07/07 05:52:59;;;;;;;;;;;;;;;23.89;50.84;99494.16;3159911;28;19928;-65
2022/07/07 05:54:30;;;;;;;;;;;;;;;23.97;50.82;99501.34;3159679;28;19928;-66
2022/07/07 05:56:02;;;;;;;;;;;;;;;24.02;50.43;99494.56;3160332;28;19989;-66
2022/07/07 05:57:34;;;;;;;;;;;;;;;24.09;50.29;99502.69;3159620;28;19924;-66
2022/07/07 05:59:07;;;;;;;;;;;;;;;24.13;50.19;99490.72;3159890;28;19928;-66
2022/07/07 06:00:38;;;;;;;;;;;;;;;24.17;49.52;99494.75;3159674;28;19989;-65
2022/07/07 06:02:10;;;;;;;;;;;;;;;24.15;49.28;99496.72;3159601;28;19984;-65
2022/07/07 06:03:42;;;;;;;;;;;;;;;24.17;49.46;99496.56;3159681;28;20465;-65
2022/07/07 06:05:13;;;;;;;;;;;;;;;24.20;49.28;99490.94;3159688;28;20411;-65
2022/07/07 06:06:45;;;;;;;;;;;;;;;24.24;49.59;99493.06;3159599;28;19979;-67
2022/07/07 06:08:17;;;;;;;;;;;;;;;24.32;49.53;99502.09;3162094;28;19931;-66
2022/07/07 06:09:49;;;;;;;;;;;;;;;24.33;48.73;99501.06;3159282;28;20084;-65
2022/07/07 06:11:20;;;;;;;;;;;;;;;24.31;48.34;99503.88;3159719;28;19928;-65
2022/07/07 06:12:51;;;;;;;;;;;;;;;24.36;48.68;99503.41;3159922;28;19947;-67
2022/07/07 06:14:24;;;;;;;;;;;;;;;24.39;48.49;99495.09;3159339;28;20305;-68
2022/07/07 06:15:56;;;;;;;;;;;;;;;24.40;48.15;99505.59;3158458;28;20390;-67
2022/07/07 06:17:28;;;;;;;;;;;;;;;24.41;48.08;99499.25;3157945;28;19981;-67
2022/07/07 06:18:59;;;;;;;;;;;;;;;24.43;48.14;99501.75;3159186;28;19924;-68
2022/07/07 06:20:31;;;;;;;;;;;;;;;24.48;48.11;99499.44;3159312;28;20006;-67
2022/07/07 06:22:03;;;;;;;;;;;;;;;24.50;47.54;99506.28;3159613;28;19924;-67
2022/07/07 06:23:34;;;;;;;;;;;;;;;24.54;48.02;99508.59;3159371;28;20321;-67
2022/07/07 06:25:08;;;;;;;;;;;;;;;24.58;47.49;99508.13;3159402;28;19988;-67
2022/07/07 06:26:40;;;;;;;;;;;;;;;24.61;47.69;99515.78;3159529;28;20381;-67
2022/07/07 06:28:11;;;;;;;;;;;;;;;24.67;47.67;99514.28;3159515;28;19924;-67
2022/07/07 06:29:44;;;;;;;;;;;;;;;24.74;47.49;99508.09;3159759;28;19923;-67
2022/07/07 06:31:16;;;;;;;;;;;;;;;24.82;47.55;99504.59;3159534;28;20315;-67
2022/07/07 06:32:47;;;;;;;;;;;;;;;24.83;47.19;99495.59;3161324;28;19950;-67
2022/07/07 06:34:19;;;;;;;;;;;;;;;24.92;47.33;99504.41;3158911;28;19928;-67
2022/07/07 06:35:51;;;;;;;;;;;;;;;24.90;46.88;99501.06;3159437;28;20324;-68
2022/07/07 06:37:22;;;;;;;;;;;;;;;24.94;46.94;99508.56;3159841;28;20118;-67
2022/07/07 06:38:54;;;;;;;;;;;;;;;25.00;47.15;99501.75;3159482;28;19924;-67
2022/07/07 06:40:26;;;;;;;;;;;;;;;25.08;47.18;99506.22;3159083;28;19936;-67
2022/07/07 06:41:57;;;;;;;;;;;;;;;25.12;46.68;99502.22;3159593;28;20332;-67
2022/07/07 06:43:29;;;;;;;;;;;;;;;25.18;46.34;99496.25;3159517;28;20326;-67
2022/07/07 06:45:02;;;;;;;;;;;;;;;25.25;46.71;99502.53;3159049;28;19927;-66
2022/07/07 06:46:34;;;;;;;;;;;;;;;25.28;45.75;99498.69;3159478;28;19932;-67
2022/07/07 06:48:06;;;;;;;;;;;;;;;25.29;45.88;99503.88;3158519;28;19927;-67
2022/07/07 06:49:37;;;;;;;;;;;;;;;25.36;45.31;99504.00;3158054;28;20290;-67
2022/07/07 06:51:09;;;;;;;;;;;;;;;25.37;45.55;99505.66;3158794;28;20285;-67
2022/07/07 06:52:40;;;;;;;;;;;;;;;25.38;45.35;99508.16;3159092;28;20328;-67
2022/07/07 06:54:12;;;;;;;;;;;;;;;25.41;45.66;99499.00;3159864;28;19924;-67
2022/07/07 06:55:44;;;;;;;;;;;;;;;25.48;45.35;99501.81;3159244;28;20324;-67
2022/07/07 06:57:15;;;;;;;;;;;;;;;25.53;45.20;99502.13;3159078;28;19935;-67
2022/07/07 06:58:47;;;;;;;;;;;;;;;25.56;45.09;99499.94;3159051;28;20002;-67
2022/07/07 07:00:20;;;;;;;;;;;;;;;25.64;45.55;99497.25;3158689;28;20306;-67
2022/07/07 07:01:51;;;;;;;;;;;;;;;25.73;45.43;99497.19;3158608;28;20382;-67
2022/07/07 07:03:23;;;;;;;;;;;;;;;25.80;45.38;99495.50;3159186;28;20072;-67
2022/07/07 07:04:54;;;;;;;;;;;;;;;25.86;45.04;99494.81;3159271;28;19968;-67
2022/07/07 07:06:28;;;;;;;;;;;;;;;25.86;44.30;99489.50;3158836;28;20312;-67
2022/07/07 07:07:59;;;;;;;;;;;;;;;25.91;44.43;99495.13;3158974;28;20398;-67
2022/07/07 07:09:31;;;;;;;;;;;;;;;26.00;44.83;99496.75;3158851;28;19982;-67
2022/07/07 07:11:03;;;;;;;;;;;;;;;26.08;44.66;99498.50;3158733;28;19932;-67
2022/07/07 07:12:35;;;;;;;;;;;;;;;26.11;44.38;99492.81;3159043;28;19928;-67
2022/07/07 07:14:06;;;;;;;;;;;;;;;26.12;43.99;99488.31;3158997;28;19931;-67
2022/07/07 07:15:40;;;;;;;;;;;;;;;26.15;43.86;99493.28;3159331;28;19946;-67
2022/07/07 07:17:11;;;;;;;;;;;;;;;26.19;44.00;99486.59;3158826;28;19932;-67
2022/07/07 07:18:43;;;;;;;;;;;;;;;26.22;43.88;99492.41;3158545;28;19928;-67
2022/07/07 07:20:15;;;;;;;;;;;;;;;26.29;43.89;99490.69;3158959;28;19955;-67
2022/07/07 07:21:46;;;;;;;;;;;;;;;26.38;44.01;99486.13;3159180;28;20019;-67
2022/07/07 07:23:18;;;;;;;;;;;;;;;26.46;43.44;99490.56;3159032;28;19924;-67
2022/07/07 07:24:50;;;;;;;;;;;;;;;26.55;43.82;99493.03;3158549;28;20270;-67
2022/07/07 07:26:21;;;;;;;;;;;;;;;26.65;43.58;99490.13;3158732;28;19924;-66
2022/07/07 07:27:53;;;;;;;;;;;;;;;26.75;42.83;99489.84;3158810;28;20418;-67
2022/07/07 07:29:24;;;;;;;;;;;;;;;26.85;43.12;99484.25;3159187;28;20404;-67
2022/07/07 07:30:57;;;;;;;;;;;;;;;26.89;42.43;99497.06;3146217;28;19934;-67
2022/07/07 07:32:29;;;;;;;;;;;;;;;26.91;41.76;99495.03;3157598;28;19992;-67
2022/07/07 07:34:00;;;;;;;;;;;;;;;26.94;41.68;99493.84;3158745;28;19950;-67
2022/07/07 07:35:32;;;;;;;;;;;;;;;26.99;41.61;99494.13;3158523;28;20370;-67
2022/07/07 07:37:04;;;;;;;;;;;;;;;27.02;41.66;99492.94;3158603;28;19981;-66
2022/07/07 07:38:37;;;;;;;;;;;;;;;27.06;41.12;99489.69;3158780;28;19928;-67
2022/07/07 07:40:10;;;;;;;;;;;;;;;27.10;41.20;99487.50;3158717;28;19980;-67
2022/07/07 07:41:43;;;;;;;;;;;;;;;27.18;41.73;99490.09;3158929;28;19961;-67
2022/07/07 07:43:15;;;;;;;;;;;;;;;27.27;41.13;99489.00;3158640;28;19985;-67
2022/07/07 07:46:37;;;;;;;;;;;;;;;27.47;40.80;99493.78;3158550;28;19927;-66
2022/07/07 07:48:08;;;;;;;;;;;;;;;27.52;40.52;99491.38;3158491;28;19932;-67
2022/07/07 07:49:40;;;;;;;;;;;;;;;27.60;40.28;99488.63;3158818;28;19931;-67
2022/07/07 07:51:11;;;;;;;;;;;;;;;27.66;39.77;99490.53;3158349;28;19924;-68
2022/07/07 07:52:43;;;;;;;;;;;;;;;27.67;40.06;99485.00;3158844;28;19925;-67
2022/07/07 07:54:14;;;;;;;;;;;;;;;27.69;40.13;99484.81;3158534;28;19999;-67
2022/07/07 07:55:46;;;;;;;;;;;;;;;27.76;40.08;99483.03;3158369;28;20397;-67
2022/07/07 07:57:18;;;;;;;;;;;;;;;27.81;39.71;99487.88;3158523;28;20239;-67
2022/07/07 07:58:49;;;;;;;;;;;;;;;27.82;39.21;99484.16;3158619;28;20389;-67
2022/07/07 08:00:22;;;;;;;;;;;;;;;27.85;39.00;99484.63;3158211;28;19976;-67